Time;durP1;ratioP1;P1;durP2;ratioP2;P2;SDS_P1;SDS_P2;PMS_P1;PMS_P2;Temp;Humidity;BMP_temperature;BMP_pressure;BME280_temperature;BME280_humidity;BME280_pressure;Samples;Min_cycle;Max_cycle;Signal;HPM_P1;HPM_P2
2023/09/04 00:02:07;;;;;;;0.20;0.20;;;;;;;32.63;42.70;100835.22;7395971;19;20022;-89
2023/09/04 00:04:33;;;;;;;0.13;0.13;;;;;;;32.80;42.13;100832.91;7392433;19;20497;-88
2023/09/04 00:06:59;;;;;;;0.50;0.30;;;;;;;33.02;41.63;100825.16;7394878;19;20019;-89
2023/09/04 00:09:25;;;;;;;3.15;0.45;;;;;;;32.86;41.33;100827.59;7393663;19;20051;-89
2023/09/04 00:11:52;;;;;;;1.52;0.98;;;;;;;32.92;41.68;100829.41;7389844;19;20031;-85
2023/09/04 00:14:18;;;;;;;0.85;0.57;;;;;;;32.82;41.82;100824.41;7400660;19;20010;-84
2023/09/04 00:16:44;;;;;;;2.70;0.60;;;;;;;32.87;41.37;100819.69;7408727;19;20047;-83
2023/09/04 00:19:11;;;;;;;1.45;0.55;;;;;;;32.88;41.20;100816.19;7409726;19;20011;-83
2023/09/04 00:21:37;;;;;;;0.70;0.70;;;;;;;33.03;40.58;100814.38;7409572;19;20015;-83
2023/09/04 00:24:03;;;;;;;0.95;0.50;;;;;;;33.08;40.88;100819.06;7411958;19;20018;-82
2023/09/04 00:26:29;;;;;;;0.60;0.15;;;;;;;33.18;40.57;100816.91;7412161;19;20575;-82
2023/09/04 00:28:55;;;;;;;2.05;0.55;;;;;;;33.22;40.46;100814.31;7416376;19;20086;-82
2023/09/04 00:31:21;;;;;;;0.43;0.28;;;;;;;33.22;40.17;100825.88;7412255;19;20017;-83
2023/09/04 00:33:47;;;;;;;6.03;0.77;;;;;;;33.18;40.13;100825.59;7403495;19;20342;-83
2023/09/04 00:36:13;;;;;;;0.20;0.20;;;;;;;33.19;39.88;100821.31;7408694;19;20043;-82
2023/09/04 00:38:40;;;;;;;6.35;0.30;;;;;;;32.94;40.38;100821.66;7412640;19;20034;-82
2023/09/04 00:41:06;;;;;;;0.50;0.50;;;;;;;33.18;40.16;100823.44;7418982;19;20018;-90
2023/09/04 00:43:36;;;;;;;0.60;0.60;;;;;;;33.29;39.72;100824.91;7423481;19;20007;-92
2023/09/04 00:46:03;;;;;;;1.48;0.65;;;;;;;33.15;39.70;100821.78;7422103;19;20011;-92
2023/09/04 00:48:31;;;;;;;4.32;0.93;;;;;;;33.02;39.67;100812.84;7424123;19;20002;-90
2023/09/04 00:50:58;;;;;;;3.13;1.00;;;;;;;33.01;39.64;100814.22;7403363;19;20044;-89
2023/09/04 00:53:25;;;;;;;1.02;0.35;;;;;;;33.00;39.38;100815.59;7409153;19;20030;-89
2023/09/04 00:55:52;;;;;;;0.45;0.45;;;;;;;33.01;39.11;100812.09;7415861;19;20007;-89
2023/09/04 00:58:18;;;;;;;0.52;0.50;;;;;;;32.88;39.38;100810.41;7411143;19;20015;-89
2023/09/04 01:00:45;;;;;;;1.25;0.43;;;;;;;33.02;39.13;100809.97;7412018;19;20034;-89
2023/09/04 01:03:12;;;;;;;0.20;0.20;;;;;;;33.09;39.00;100817.69;7411143;19;20039;-89
2023/09/04 01:05:39;;;;;;;2.38;0.60;;;;;;;33.18;38.80;100817.66;7411204;19;20025;-90
2023/09/04 01:08:05;;;;;;;0.35;0.35;;;;;;;33.18;38.82;100820.53;7416629;19;20035;-88
2023/09/04 01:10:48;;;;;;;0.82;0.82;;;;;;;33.16;38.43;100811.75;7413852;19;20014;-89
2023/09/04 01:13:22;;;;;;;1.10;0.45;;;;;;;33.17;38.24;100807.50;7415142;19;20015;-90
2023/09/04 01:15:50;;;;;;;0.13;0.10;;;;;;;33.19;38.61;100801.09;7412129;19;20023;-89
2023/09/04 01:18:17;;;;;;;0.35;0.35;;;;;;;33.12;38.21;100811.44;7419574;19;20019;-89
2023/09/04 01:20:44;;;;;;;0.68;0.38;;;;;;;33.11;38.01;100812.06;7415282;19;20110;-89
2023/09/04 01:23:10;;;;;;;0.32;0.30;;;;;;;33.09;38.15;100811.94;7415449;19;20015;-89
2023/09/04 01:25:39;;;;;;;0.85;0.30;;;;;;;33.09;38.02;100811.94;7412160;19;20034;-89
2023/09/04 01:28:33;;;;;;;0.50;0.43;;;;;;;34.51;36.58;100806.78;7402810;19;20033;-90
2023/09/04 01:31:22;;;;;;;0.50;0.43;;;;;;;35.12;35.74;100805.72;7399159;19;20047;-89
2023/09/04 01:33:58;;;;;;;2.35;0.60;;;;;;;35.14;35.85;100802.97;7400093;19;20011;-89
2023/09/04 01:36:27;;;;;;;0.55;0.50;;;;;;;34.98;35.86;100796.84;7397977;19;20041;-90
2023/09/04 01:38:54;;;;;;;0.20;0.20;;;;;;;34.90;35.79;100795.56;7400728;19;20022;-89
2023/09/04 01:41:20;;;;;;;0.50;0.50;;;;;;;34.83;35.72;100796.56;7400213;19;20118;-89
2023/09/04 01:43:46;;;;;;;5.32;0.65;;;;;;;34.58;35.85;100797.13;7399731;19;20508;-90
2023/09/04 01:46:13;;;;;;;0.52;0.40;;;;;;;32.98;37.75;100806.75;7400132;19;20084;-89
2023/09/04 01:48:39;;;;;;;0.45;0.30;;;;;;;34.09;36.11;100801.00;7400996;19;20033;-89
2023/09/04 01:51:07;;;;;;;0.30;0.10;;;;;;;34.70;35.23;100791.34;7399666;19;20030;-89
2023/09/04 01:53:33;;;;;;;0.90;0.63;;;;;;;33.32;36.35;100792.69;7400295;19;20031;-89
2023/09/04 01:56:00;;;;;;;0.68;0.60;;;;;;;34.94;34.82;100801.63;7399126;19;20046;-89
2023/09/04 01:58:28;;;;;;;0.55;0.40;;;;;;;35.09;34.71;100801.19;7403629;19;20038;-90
2023/09/04 02:00:54;;;;;;;1.33;0.63;;;;;;;35.22;34.66;100791.88;7398049;19;20077;-90
2023/09/04 02:03:20;;;;;;;0.57;0.30;;;;;;;35.10;34.51;100791.13;7398328;19;20042;-90
2023/09/04 02:05:46;;;;;;;0.30;0.30;;;;;;;35.63;34.07;100784.38;7398827;19;20014;-90
2023/09/04 02:08:12;;;;;;;1.17;0.80;;;;;;;35.69;33.55;100778.94;7401127;19;20090;-89
2023/09/04 02:10:39;;;;;;;0.77;0.75;;;;;;;35.67;33.41;100778.81;7397401;19;20022;-89
2023/09/04 02:13:05;;;;;;;4.75;0.50;;;;;;;34.55;34.55;100774.44;7394424;19;20018;-90
2023/09/04 02:15:32;;;;;;;0.10;0.10;;;;;;;35.53;33.37;100769.25;7394458;19;20011;-89
2023/09/04 02:18:02;;;;;;;0.75;0.20;;;;;;;35.55;33.43;100760.69;7399818;19;20024;-89
2023/09/04 02:20:29;;;;;;;0.77;0.20;;;;;;;35.73;33.13;100758.91;7396035;19;20007;-88
2023/09/04 02:22:56;;;;;;;0.55;0.50;;;;;;;35.48;33.23;100767.50;7394643;19;20272;-90
2023/09/04 02:25:23;;;;;;;0.70;0.70;;;;;;;26.77;40.96;100776.41;7395019;19;20114;-90
2023/09/04 02:27:49;;;;;;;1.42;0.63;;;;;;;17.51;100.00;100793.13;7399985;19;20111;-89
2023/09/04 02:30:15;;;;;;;0.47;0.35;;;;;;;30.35;50.24;100759.50;7395292;19;20014;-89
2023/09/04 02:32:43;;;;;;;0.57;0.30;;;;;;;31.74;44.65;100769.97;7394533;19;20022;-89
2023/09/04 02:35:09;;;;;;;0.30;0.22;;;;;;;31.88;43.07;100762.44;7394537;19;20010;-89
2023/09/04 02:37:35;;;;;;;1.10;0.30;;;;;;;32.08;41.96;100766.84;7398250;19;20480;-89
2023/09/04 02:40:05;;;;;;;0.40;0.40;;;;;;;32.12;41.46;100767.94;7397189;19;20018;-89
2023/09/04 02:42:32;;;;;;;0.60;0.30;;;;;;;32.15;41.04;100765.97;7392984;19;20025;-89
2023/09/04 02:44:58;;;;;;;1.65;0.80;;;;;;;32.28;40.42;100759.75;7394654;19;20010;-90
2023/09/04 02:47:24;;;;;;;0.82;0.60;;;;;;;32.37;40.00;100761.09;7397476;19;20014;-89
2023/09/04 02:49:51;;;;;;;0.20;0.20;;;;;;;32.37;39.38;100758.97;7395062;19;20010;-89
2023/09/04 02:52:17;;;;;;;0.20;0.20;;;;;;;32.12;39.65;100758.50;7393140;19;20026;-89
2023/09/04 02:54:44;;;;;;;0.57;0.40;;;;;;;32.11;39.70;100762.78;7392634;19;20010;-89
2023/09/04 02:57:10;;;;;;;4.45;1.13;;;;;;;33.22;38.42;100762.34;7394841;19;20349;-89
2023/09/04 02:59:36;;;;;;;0.95;0.35;;;;;;;33.52;37.21;100752.94;7397464;19;20018;-89
2023/09/04 03:02:03;;;;;;;0.55;0.32;;;;;;;32.54;38.17;100753.06;7392469;19;20023;-89
2023/09/04 03:04:29;;;;;;;2.70;0.68;;;;;;;32.19;38.75;100751.84;7394515;19;20022;-89
2023/09/04 03:06:55;;;;;;;0.50;0.30;;;;;;;32.16;38.59;100747.31;7396687;19;20522;-89
2023/09/04 03:09:21;;;;;;;2.30;0.60;;;;;;;32.02;38.90;100740.47;7394342;19;20113;-89
2023/09/04 03:11:48;;;;;;;2.45;0.70;;;;;;;32.10;38.56;100738.19;7392094;19;20010;-89
2023/09/04 03:14:15;;;;;;;0.35;0.30;;;;;;;32.23;38.12;100737.72;7391424;19;20014;-89
2023/09/04 03:16:42;;;;;;;0.73;0.30;;;;;;;34.17;36.31;100732.13;7392221;19;20014;-89
2023/09/04 03:19:08;;;;;;;0.30;0.20;;;;;;;32.54;37.71;100737.88;7394742;19;20029;-88
2023/09/04 03:21:34;;;;;;;0.55;0.40;;;;;;;32.11;37.66;100736.84;7391828;19;20074;-89
2023/09/04 03:24:00;;;;;;;1.10;0.85;;;;;;;33.30;36.55;100740.56;7393611;19;20032;-89
2023/09/04 03:26:27;;;;;;;0.95;0.43;;;;;;;31.72;38.37;100744.66;7392022;19;20022;-89
2023/09/04 03:28:53;;;;;;;8.40;1.00;;;;;;;31.64;38.61;100746.16;7394359;19;20365;-89
2023/09/04 03:31:19;;;;;;;0.45;0.30;;;;;;;33.35;36.87;100747.38;7393852;19;20495;-89
2023/09/04 03:33:47;;;;;;;0.30;0.30;;;;;;;34.06;35.63;100747.28;7393029;19;20017;-90
2023/09/04 03:36:14;;;;;;;1.13;0.30;;;;;;;34.19;34.88;100741.72;7391723;19;20026;-89
2023/09/04 03:38:40;;;;;;;0.50;0.50;;;;;;;34.12;34.56;100742.69;7393541;19;20006;-89
2023/09/04 03:41:06;;;;;;;0.50;0.50;;;;;;;34.74;34.07;100730.88;7396092;19;20015;-89
2023/09/04 03:43:34;;;;;;;0.82;0.50;;;;;;;34.75;34.04;100738.16;7394398;19;20014;-89
2023/09/04 03:46:00;;;;;;;1.75;0.40;;;;;;;34.95;33.23;100727.88;7391909;19;20018;-90
2023/09/04 03:48:27;;;;;;;0.75;0.75;;;;;;;32.81;35.56;100733.41;7391502;19;20019;-89
2023/09/04 03:50:57;;;;;;;0.50;0.50;;;;;;;34.56;33.49;100721.00;7392461;19;20018;-89
2023/09/04 03:53:23;;;;;;;1.10;0.63;;;;;;;34.71;33.15;100726.31;7393609;19;20479;-89
2023/09/04 03:55:50;;;;;;;1.10;0.35;;;;;;;34.61;33.42;100726.41;7394068;19;20018;-89
2023/09/04 03:58:17;;;;;;;1.98;0.20;;;;;;;34.64;33.15;100716.47;7393813;19;20023;-89
2023/09/04 04:00:43;;;;;;;2.28;0.85;;;;;;;34.84;33.15;100719.91;7392956;19;20036;-89
2023/09/04 04:03:09;;;;;;;0.50;0.20;;;;;;;33.35;33.54;100730.78;7389571;19;20487;-88
2023/09/04 04:05:35;;;;;;;0.63;0.45;;;;;;;32.54;35.55;100727.13;7391545;19;20472;-89
2023/09/04 04:08:02;;;;;;;3.30;0.93;;;;;;;32.12;35.78;100729.69;7394683;19;20017;-88
2023/09/04 04:10:28;;;;;;;0.70;0.70;;;;;;;31.84;35.98;100734.03;7393591;19;20014;-91
2023/09/04 04:12:54;;;;;;;0.75;0.50;;;;;;;32.33;36.10;100732.72;7390837;19;20026;-89
2023/09/04 04:15:20;;;;;;;0.82;0.30;;;;;;;34.26;33.83;100722.63;7390451;19;20078;-90
2023/09/04 04:17:47;;;;;;;1.30;0.35;;;;;;;34.53;33.57;100719.34;7390434;19;20468;-90
2023/09/04 04:20:15;;;;;;;1.27;0.73;;;;;;;34.64;33.35;100721.50;7391810;19;20043;-87
2023/09/04 04:22:41;;;;;;;0.73;0.40;;;;;;;34.38;33.72;100717.63;7390961;19;20023;-89
2023/09/04 04:25:08;;;;;;;0.20;0.20;;;;;;;30.29;37.94;100726.59;7395237;19;20018;-90
2023/09/04 04:27:34;;;;;;;0.25;0.25;;;;;;;27.53;41.80;100730.75;7398960;19;20058;-89
2023/09/04 04:30:02;;;;;;;1.13;0.38;;;;;;;32.68;35.96;100728.13;7400840;19;20011;-89
2023/09/04 04:32:30;;;;;;;0.22;0.22;;;;;;;34.44;33.86;100720.19;7397775;19;20007;-89
2023/09/04 04:34:56;;;;;;;0.77;0.77;;;;;;;34.69;33.52;100718.25;7397480;19;20046;-89
2023/09/04 04:37:23;;;;;;;1.33;0.25;;;;;;;34.71;33.23;100715.50;7398648;19;20500;-89
2023/09/04 04:39:51;;;;;;;0.90;0.50;;;;;;;34.88;32.85;100718.03;7398899;19;20471;-89
2023/09/04 04:42:17;;;;;;;1.88;0.70;;;;;;;34.74;32.63;100713.50;7398031;19;20026;-88
2023/09/04 04:44:43;;;;;;;0.35;0.35;;;;;;;34.57;32.84;100705.13;7399126;19;20025;-86
2023/09/04 04:47:10;;;;;;;0.35;0.35;;;;;;;33.56;33.52;100704.88;7396908;19;20021;-86
2023/09/04 04:49:36;;;;;;;0.43;0.43;;;;;;;34.14;33.09;100704.44;7397780;19;20018;-86
2023/09/04 04:52:03;;;;;;;0.40;0.40;;;;;;;34.22;32.92;100705.75;7395249;19;20044;-86
2023/09/04 04:54:29;;;;;;;0.52;0.52;;;;;;;34.40;33.01;100706.19;7397295;19;20014;-86
2023/09/04 04:56:55;;;;;;;2.97;1.02;;;;;;;34.26;32.56;100705.28;7395361;19;20113;-85
2023/09/04 04:59:21;;;;;;;0.10;0.10;;;;;;;34.27;32.61;100689.41;7397697;19;20242;-86
2023/09/04 05:01:47;;;;;;;0.50;0.43;;;;;;;34.09;32.70;100694.00;7390326;19;20018;-86
2023/09/04 05:04:14;;;;;;;1.42;0.77;;;;;;;34.75;32.15;100692.59;7392673;19;20048;-87
2023/09/04 05:06:40;;;;;;;1.83;1.02;;;;;;;34.96;32.21;100688.81;7394648;19;20469;-87
2023/09/04 05:09:07;;;;;;;0.22;0.22;;;;;;;34.31;32.61;100692.56;7391545;19;20015;-87
2023/09/04 05:11:34;;;;;;;0.50;0.50;;;;;;;35.09;32.03;100682.44;7391999;19;20017;-86
2023/09/04 05:14:01;;;;;;;1.35;0.93;;;;;;;35.13;31.87;100688.47;7395822;19;20053;-87
2023/09/04 05:16:28;;;;;;;2.28;0.77;;;;;;;30.47;35.83;100699.38;7393643;19;20026;-88
2023/09/04 05:18:54;;;;;;;0.55;0.43;;;;;;;34.26;32.37;100694.44;7396781;19;20025;-87
2023/09/04 05:21:21;;;;;;;0.43;0.40;;;;;;;32.92;33.58;100699.53;7395041;19;20018;-87
2023/09/04 05:23:50;;;;;;;0.30;0.30;;;;;;;30.14;37.39;100703.78;7397096;19;20023;-86
2023/09/04 05:26:16;;;;;;;0.60;0.60;;;;;;;33.36;33.55;100702.69;7393231;19;20550;-86
2023/09/04 05:28:42;;;;;;;0.40;0.40;;;;;;;31.45;35.58;100712.28;7393831;19;20098;-87
2023/09/04 05:31:09;;;;;;;0.30;0.30;;;;;;;30.68;35.97;100714.81;7395753;19;20018;-87
2023/09/04 05:33:35;;;;;;;1.42;0.75;;;;;;;29.21;38.35;100713.13;7391459;19;20101;-86
2023/09/04 05:36:01;;;;;;;0.10;0.10;;;;;;;33.06;34.32;100703.44;7388981;19;20019;-87
2023/09/04 05:38:27;;;;;;;0.32;0.32;;;;;;;33.86;33.04;100706.19;7392007;19;20037;-86
2023/09/04 05:40:55;;;;;;;0.38;0.38;;;;;;;33.80;33.31;100702.88;7395507;19;20019;-86
2023/09/04 05:43:22;;;;;;;0.40;0.40;;;;;;;34.17;32.79;100709.78;7399554;19;20011;-87
2023/09/04 05:45:48;;;;;;;0.13;0.13;;;;;;;34.44;32.24;100714.41;7397437;19;20048;-86
2023/09/04 05:48:15;;;;;;;0.30;0.30;;;;;;;34.36;32.29;100711.72;7396967;19;20025;-86
2023/09/04 05:50:41;;;;;;;0.20;0.20;;;;;;;34.59;31.76;100714.69;7394878;19;20007;-87
2023/09/04 05:53:07;;;;;;;1.35;0.25;;;;;;;34.68;32.11;100704.41;7393671;19;20030;-88
2023/09/04 05:55:36;;;;;;;2.95;0.88;;;;;;;34.53;31.85;100699.09;7399277;19;20026;-91
2023/09/04 05:58:03;;;;;;;1.67;0.73;;;;;;;34.43;32.02;100701.28;7394743;19;20019;-83
2023/09/04 06:00:29;;;;;;;1.50;0.63;;;;;;;34.10;32.05;100699.16;7395260;19;20050;-82
2023/09/04 06:02:55;;;;;;;1.17;1.10;;;;;;;34.56;32.29;100703.63;7392702;19;20022;-83
2023/09/04 06:05:21;;;;;;;0.30;0.20;;;;;;;34.67;31.88;100708.69;7393673;19;20018;-81
2023/09/04 06:07:47;;;;;;;0.65;0.65;;;;;;;34.86;32.05;100699.78;7397304;19;20011;-81
2023/09/04 06:10:14;;;;;;;0.80;0.60;;;;;;;34.89;31.98;100696.38;7393694;19;20022;-82
2023/09/04 06:12:40;;;;;;;2.00;0.57;;;;;;;32.68;33.49;100710.09;7394423;19;20018;-82
2023/09/04 06:15:07;;;;;;;0.68;0.38;;;;;;;30.43;36.68;100704.81;7392404;19;20038;-83
2023/09/04 06:17:33;;;;;;;0.60;0.60;;;;;;;29.99;37.36;100707.63;7392965;19;20032;-83
2023/09/04 06:19:59;;;;;;;0.30;0.20;;;;;;;30.26;37.46;100701.91;7395907;19;20018;-82
2023/09/04 06:22:25;;;;;;;1.90;0.47;;;;;;;30.02;38.07;100708.53;7391369;19;20019;-81
2023/09/04 06:24:51;;;;;;;0.40;0.40;;;;;;;30.26;38.19;100704.78;7395305;19;20034;-82
2023/09/04 06:27:18;;;;;;;0.40;0.40;;;;;;;30.52;37.91;100704.09;7393031;19;20074;-82
2023/09/04 06:29:44;;;;;;;1.20;0.45;;;;;;;30.68;37.83;100708.28;7393297;19;20044;-82
2023/09/04 06:32:13;;;;;;;0.22;0.22;;;;;;;30.68;37.96;100714.81;7395165;19;20018;-82
2023/09/04 06:34:39;;;;;;;1.50;0.65;;;;;;;29.82;39.07;100711.22;7394266;19;20038;-82
2023/09/04 06:37:05;;;;;;;4.78;0.60;;;;;;;30.20;39.18;100715.78;7391706;19;20365;-82
2023/09/04 06:39:31;;;;;;;1.15;0.40;;;;;;;30.47;39.05;100716.63;7391944;19;20025;-82
2023/09/04 06:41:57;;;;;;;0.50;0.50;;;;;;;30.59;39.17;100706.09;7391721;19;20476;-82
2023/09/04 06:44:28;;;;;;;1.13;0.55;;;;;;;31.14;38.86;100714.91;7392307;19;20356;-82
2023/09/04 06:46:54;;;;;;;0.47;0.38;;;;;;;31.56;38.68;100713.81;7394060;19;20026;-83
2023/09/04 06:49:20;;;;;;;0.30;0.30;;;;;;;31.35;38.93;100718.00;7392189;19;20031;-83
2023/09/04 06:51:46;;;;;;;0.80;0.30;;;;;;;31.66;38.69;100714.63;7392712;19;20015;-83
2023/09/04 06:54:12;;;;;;;0.43;0.30;;;;;;;31.65;38.84;100710.19;7395247;19;20018;-83
2023/09/04 06:56:38;;;;;;;0.10;0.10;;;;;;;31.69;39.38;100704.75;7391841;19;20014;-82
2023/09/04 06:59:05;;;;;;;0.25;0.25;;;;;;;31.78;39.01;100706.88;7395416;19;20539;-83
2023/09/04 07:01:31;;;;;;;1.08;0.20;;;;;;;31.84;39.08;100698.69;7392270;19;20078;-83
2023/09/04 07:03:57;;;;;;;0.30;0.30;;;;;;;31.94;39.21;100700.28;7391336;19;20350;-82
2023/09/04 07:06:23;;;;;;;0.80;0.65;;;;;;;31.97;39.29;100695.41;7393080;19;20052;-83
2023/09/04 07:08:50;;;;;;;0.85;0.55;;;;;;;32.00;39.54;100694.19;7394034;19;20023;-82
2023/09/04 07:11:16;;;;;;;1.65;0.82;;;;;;;32.07;39.73;100696.19;7393481;19;20018;-83
2023/09/04 07:13:42;;;;;;;2.92;0.75;;;;;;;32.23;40.11;100687.97;7391532;19;20010;-83
2023/09/04 07:16:08;;;;;;;0.10;0.10;;;;;;;33.59;38.72;100691.34;7389734;19;20014;-82
2023/09/04 07:18:34;;;;;;;0.40;0.40;;;;;;;35.58;36.57;100692.00;7392010;19;20015;-82
2023/09/04 07:21:01;;;;;;;2.95;0.80;;;;;;;35.97;36.26;100695.84;7392857;19;20406;-82
2023/09/04 07:23:27;;;;;;;0.77;0.68;;;;;;;36.24;36.00;100701.78;7391285;19;20022;-82
2023/09/04 07:25:57;;;;;;;0.60;0.60;;;;;;;37.29;34.72;100696.06;7391104;19;20060;-82
2023/09/04 07:28:23;;;;;;;1.77;0.85;;;;;;;37.75;34.21;100694.88;7396422;19;20024;-82
2023/09/04 07:30:49;;;;;;;1.45;0.38;;;;;;;37.75;34.61;100694.88;7392442;19;20022;-83
2023/09/04 07:33:16;;;;;;;3.08;0.77;;;;;;;37.85;34.29;100699.09;7390571;19;20543;-82
2023/09/04 07:35:42;;;;;;;1.42;0.30;;;;;;;37.94;34.37;100691.53;7388677;19;20069;-82
2023/09/04 07:38:08;;;;;;;3.17;0.52;;;;;;;37.96;34.32;100700.34;7395047;19;20017;-82
2023/09/04 07:40:34;;;;;;;0.30;0.20;;;;;;;37.97;34.76;100690.19;7392340;19;20483;-83
2023/09/04 07:43:01;;;;;;;1.63;0.93;;;;;;;38.15;34.45;100702.75;7388669;19;20014;-82
2023/09/04 07:45:27;;;;;;;3.20;0.93;;;;;;;24.25;67.12;100711.91;7389411;19;20047;-83
2023/09/04 07:47:53;;;;;;;0.82;0.30;;;;;;;33.12;54.91;100707.50;7396118;19;20026;-82
2023/09/04 07:50:19;;;;;;;1.00;0.65;;;;;;;26.32;66.04;100713.34;7396319;19;20022;-82
2023/09/04 07:52:45;;;;;;;0.75;0.30;;;;;;;25.45;90.74;100713.19;7389208;19;20077;-82
2023/09/04 07:55:12;;;;;;;0.47;0.30;;;;;;;34.72;52.43;100698.88;7389047;19;20011;-82
2023/09/04 07:57:38;;;;;;;4.30;0.63;;;;;;;37.64;42.39;100695.75;7392225;19;20038;-82
2023/09/04 08:00:05;;;;;;;2.83;0.70;;;;;;;35.20;43.81;100684.59;7394090;19;20010;-82
2023/09/04 08:02:39;;;;;;;4.15;0.65;;;;;;;38.43;39.61;100680.91;7390744;19;20021;-82
2023/09/04 08:05:05;;;;;;;1.77;0.75;;;;;;;38.43;39.35;100691.78;7395462;19;20011;-82
2023/09/04 08:07:31;;;;;;;0.47;0.47;;;;;;;38.55;39.24;100683.66;7392281;19;20338;-82
2023/09/04 08:09:58;;;;;;;1.60;0.60;;;;;;;39.21;38.63;100680.22;7393113;19;20033;-83
2023/09/04 08:12:24;;;;;;;8.27;1.58;;;;;;;39.36;38.84;100680.19;7390145;19;20048;-83
2023/09/04 08:14:51;;;;;;;1.45;0.93;;;;;;;39.35;39.26;100672.13;7395165;19;20019;-82
2023/09/04 08:17:17;;;;;;;9.30;1.48;;;;;;;39.33;40.20;100678.59;7392048;19;20039;-83
2023/09/04 08:19:44;;;;;;;5.88;2.05;;;;;;;39.88;39.22;100675.91;7389685;19;20022;-84
2023/09/04 08:22:10;;;;;;;5.00;1.45;;;;;;;40.44;38.66;100668.03;7391152;19;20010;-84
2023/09/04 08:24:36;;;;;;;25.25;3.58;;;;;;;40.49;38.91;100673.38;7390631;19;20088;-84
2023/09/04 08:27:02;;;;;;;16.58;2.70;;;;;;;40.78;38.39;100675.25;7390537;19;20014;-83
2023/09/04 08:29:28;;;;;;;7.38;1.45;;;;;;;40.80;38.83;100684.09;7393916;19;20638;-83
2023/09/04 08:31:54;;;;;;;15.60;1.50;;;;;;;40.90;38.57;100675.72;7387819;19;20531;-85
2023/09/04 08:34:21;;;;;;;7.03;1.42;;;;;;;40.90;38.86;100677.88;7389226;19;20023;-84
2023/09/04 08:36:47;;;;;;;9.90;2.88;;;;;;;41.47;38.59;100678.59;7391015;19;20019;-85
2023/09/04 08:39:13;;;;;;;8.27;3.55;;;;;;;41.14;38.87;100673.72;7389067;19;20007;-85
2023/09/04 08:41:41;;;;;;;12.77;2.25;;;;;;;41.70;38.22;100677.97;7392810;19;20029;-84
2023/09/04 08:44:09;;;;;;;5.13;1.60;;;;;;;41.76;38.40;100674.53;7390464;19;20014;-83
2023/09/04 08:46:35;;;;;;;5.55;1.40;;;;;;;42.37;37.61;100680.97;7391138;19;20520;-84
2023/09/04 08:49:02;;;;;;;11.50;2.67;;;;;;;42.50;37.36;100679.97;7389312;19;20472;-84
2023/09/04 08:51:29;;;;;;;7.00;2.65;;;;;;;42.61;37.66;100678.84;7388681;19;20029;-83
2023/09/04 08:53:56;;;;;;;8.13;2.72;;;;;;;42.72;37.99;100671.84;7389995;19;20019;-84
2023/09/04 08:56:22;;;;;;;12.30;4.45;;;;;;;42.71;37.81;100663.75;7388020;19;20005;-83
2023/09/04 08:58:48;;;;;;;6.65;1.92;;;;;;;42.78;37.95;100657.38;7393482;19;20017;-84
2023/09/04 09:01:15;;;;;;;4.93;2.55;;;;;;;42.83;37.56;100659.00;7387469;19;20486;-83
2023/09/04 09:03:42;;;;;;;4.95;1.45;;;;;;;42.95;37.97;100650.59;7391707;19;20014;-83
2023/09/04 09:06:09;;;;;;;8.00;2.42;;;;;;;43.03;37.79;100658.88;7390213;19;20014;-83
2023/09/04 09:08:35;;;;;;;11.90;2.50;;;;;;;42.82;37.75;100654.56;7390244;19;20079;-83
2023/09/04 09:11:03;;;;;;;7.22;1.38;;;;;;;43.16;37.98;100649.00;7394744;19;20143;-84
2023/09/04 09:13:29;;;;;;;1.92;1.23;;;;;;;43.33;37.64;100644.34;7401672;19;20014;-85
2023/09/04 09:15:55;;;;;;;6.22;1.48;;;;;;;43.17;37.54;100652.66;7393656;19;20024;-84
2023/09/04 09:18:39;;;;;;;8.25;1.33;;;;;;;42.55;38.22;100648.59;7398909;19;20046;-84
2023/09/04 09:21:23;;;;;;;5.88;1.48;;;;;;;43.02;38.40;100647.81;7395346;19;20014;-84
2023/09/04 09:24:09;;;;;;;5.53;1.98;;;;;;;42.55;39.37;100637.63;7396733;19;20038;-86
2023/09/04 09:26:37;;;;;;;2.25;1.05;;;;;;;42.71;39.13;100646.91;7398818;19;20014;-84
2023/09/04 09:29:04;;;;;;;2.42;0.85;;;;;;;42.84;39.29;100645.09;7399380;19;20026;-85
2023/09/04 09:31:30;;;;;;;5.70;1.90;;;;;;;42.68;39.38;100644.59;7396241;19;20022;-86
2023/09/04 09:33:57;;;;;;;7.15;2.00;;;;;;;42.72;39.44;100636.69;7396338;19;20015;-87
2023/09/04 09:36:23;;;;;;;7.10;0.93;;;;;;;42.77;39.55;100629.53;7395979;19;20007;-87
2023/09/04 09:38:49;;;;;;;1.90;0.75;;;;;;;43.10;39.48;100630.47;7396433;19;20082;-88
2023/09/04 09:41:15;;;;;;;4.20;0.90;;;;;;;43.92;38.59;100629.78;7400290;19;20033;-87
2023/09/04 09:43:41;;;;;;;4.63;0.80;;;;;;;43.13;39.92;100626.16;7395258;19;20018;-85
2023/09/04 09:46:09;;;;;;;6.82;1.25;;;;;;;37.85;48.01;100625.59;7396894;19;20043;-86
2023/09/04 09:48:40;;;;;;;5.70;1.35;;;;;;;43.39;40.58;100623.97;7395681;19;20519;-87
2023/09/04 09:51:06;;;;;;;2.05;0.40;;;;;;;42.98;41.34;100622.81;7396457;19;20026;-88
2023/09/04 09:53:48;;;;;;;1.02;0.65;;;;;;;44.06;39.52;100614.72;7400483;19;20014;-88
2023/09/04 09:56:15;;;;;;;3.53;0.98;;;;;;;44.12;39.77;100615.59;7395850;19;20026;-88
2023/09/04 09:58:43;;;;;;;4.72;1.30;;;;;;;44.54;38.93;100618.03;7396365;19;20014;-90
2023/09/04 10:01:10;;;;;;;2.95;0.80;;;;;;;44.75;38.79;100614.09;7394673;19;20014;-89
2023/09/04 10:03:36;;;;;;;1.25;0.75;;;;;;;44.58;38.39;100607.13;7396325;19;20022;-87
2023/09/04 10:06:04;;;;;;;3.25;1.10;;;;;;;44.85;38.19;100612.16;7394342;19;20010;-88
2023/09/04 10:08:35;;;;;;;4.80;0.68;;;;;;;44.38;38.29;100598.56;7400194;19;20031;-89
2023/09/04 10:13:48;;;;;;;1.77;0.65;;;;;;;45.21;36.86;100594.47;7392592;19;20038;-84
2023/09/04 10:16:24;;;;;;;2.30;0.88;;;;;;;44.73;37.91;100600.09;7391786;19;20495;-84
2023/09/04 10:18:53;;;;;;;2.70;0.93;;;;;;;44.10;37.80;100591.31;7393777;19;20091;-84
2023/09/04 10:21:22;;;;;;;1.25;0.22;;;;;;;43.99;38.11;100584.44;7395832;19;20026;-86
2023/09/04 10:23:53;;;;;;;3.28;0.32;;;;;;;44.06;38.14;100591.97;7391338;19;20018;-86
2023/09/04 10:26:24;;;;;;;7.22;1.30;;;;;;;43.56;38.89;100588.47;7396069;19;20018;-87
2023/09/04 10:29:22;;;;;;;2.17;0.47;;;;;;;44.71;37.40;100587.53;7392131;19;20006;-88
2023/09/04 10:31:49;;;;;;;0.63;0.63;;;;;;;44.90;36.85;100583.56;7392391;19;20074;-88
2023/09/04 10:34:15;;;;;;;2.35;0.90;;;;;;;44.54;37.30;100577.66;7392869;19;20021;-88
2023/09/04 10:36:42;;;;;;;1.00;0.30;;;;;;;44.48;36.06;100583.41;7393090;19;20050;-86
2023/09/04 10:39:09;;;;;;;1.42;0.60;;;;;;;44.56;36.58;100580.63;7395250;19;20026;-88
2023/09/04 10:41:35;;;;;;;2.20;0.85;;;;;;;45.08;35.61;100581.72;7399596;19;20039;-89
2023/09/04 10:44:02;;;;;;;4.65;0.80;;;;;;;45.18;35.13;100578.25;7394615;19;20018;-88
2023/09/04 10:46:28;;;;;;;3.22;0.60;;;;;;;38.08;41.84;100581.66;7395299;19;20011;-88
2023/09/04 10:48:54;;;;;;;9.13;0.65;;;;;;;43.44;37.11;100569.81;7394718;19;20010;-89
2023/09/04 10:51:35;;;;;;;2.70;0.95;;;;;;;44.66;35.14;100574.22;7396525;19;20027;-88
2023/09/04 10:54:23;;;;;;;3.47;0.65;;;;;;;44.91;34.93;100579.16;7395942;19;20112;-91
2023/09/04 10:56:53;;;;;;;1.92;0.50;;;;;;;45.00;33.99;100563.91;7394565;19;20018;-86
2023/09/04 10:59:20;;;;;;;2.92;0.20;;;;;;;44.92;33.34;100563.03;7394250;19;20014;-89
2023/09/04 11:01:46;;;;;;;6.15;1.33;;;;;;;44.96;33.61;100563.09;7394566;19;20041;-85
2023/09/04 11:04:46;;;;;;;1.55;0.68;;;;;;;45.01;33.44;100561.72;7395363;19;20082;-92
2023/09/04 11:07:21;;;;;;;1.40;0.63;;;;;;;45.78;32.48;100558.72;7395851;19;20078;-90
2023/09/04 11:09:48;;;;;;;4.80;0.73;;;;;;;46.17;33.10;100559.31;7397538;19;20046;-90
2023/09/04 11:12:22;;;;;;;2.35;0.80;;;;;;;46.30;32.64;100552.16;7393387;19;20035;-89
2023/09/04 11:14:52;;;;;;;1.23;0.30;;;;;;;46.03;32.56;100556.16;7395729;19;20018;-90
2023/09/04 11:17:30;;;;;;;3.33;0.40;;;;;;;37.15;44.26;100562.41;7394753;19;20046;-90
2023/09/04 11:19:59;;;;;;;0.60;0.25;;;;;;;36.25;48.34;100560.38;7391695;19;20018;-89
2023/09/04 11:22:25;;;;;;;3.90;1.23;;;;;;;36.06;53.10;100552.78;7395824;19;20011;-89
2023/09/04 11:24:54;;;;;;;10.50;0.80;;;;;;;36.01;53.85;100568.47;7396210;19;20041;-89
2023/09/04 11:27:21;;;;;;;2.55;0.82;;;;;;;35.73;53.70;100555.97;7399724;19;20078;-89
2023/09/04 11:29:48;;;;;;;2.97;0.63;;;;;;;35.99;55.31;100553.09;7396878;19;20031;-90